Time;durP1;ratioP1;P1;durP2;ratioP2;P2;SDS_P1;SDS_P2;PMS_P1;PMS_P2;Temp;Humidity;BMP_temperature;BMP_pressure;BME280_temperature;BME280_humidity;BME280_pressure;Samples;Min_cycle;Max_cycle;Signal;HPM_P1;HPM_P2
2024/04/04 00:01:42;0.00;0.00;0.62;0.00;0.00;0.62;2.13;1.10;;;23.80;27.60;;;;;;2231874;62;20399;-65
2024/04/04 00:04:08;0.00;0.00;0.62;0.00;0.00;0.62;2.10;1.10;;;23.80;27.50;;;;;;2229502;62;20423;-65
2024/04/04 00:06:36;0.00;0.00;0.62;0.00;0.00;0.62;2.40;0.97;;;23.80;27.60;;;;;;2231949;62;20415;-65
2024/04/04 00:09:03;0.00;0.00;0.62;0.00;0.00;0.62;1.60;0.80;;;23.80;27.50;;;;;;2231378;62;20515;-65
2024/04/04 00:11:29;0.00;0.00;0.62;0.00;0.00;0.62;2.10;1.30;;;23.80;27.50;;;;;;2232457;62;20407;-65
2024/04/04 00:13:55;0.00;0.00;0.62;0.00;0.00;0.62;2.30;1.00;;;23.80;27.50;;;;;;2232067;62;20361;-65
2024/04/04 00:16:21;0.00;0.00;0.62;0.00;0.00;0.62;1.90;1.27;;;23.80;27.50;;;;;;2231938;62;20361;-65
2024/04/04 00:18:48;0.00;0.00;0.62;0.00;0.00;0.62;2.27;1.20;;;23.80;27.50;;;;;;2232485;62;20368;-66
2024/04/04 00:21:14;0.00;0.00;0.62;0.00;0.00;0.62;1.80;1.10;;;23.80;27.50;;;;;;2232240;62;20380;-65
2024/04/04 00:23:42;0.00;0.00;0.62;0.00;0.00;0.62;2.27;1.00;;;23.80;27.50;;;;;;2231995;62;20367;-65
2024/04/04 00:26:08;0.00;0.00;0.62;0.00;0.00;0.62;3.50;1.00;;;23.80;27.50;;;;;;2232636;62;20396;-67
2024/04/04 00:28:34;0.00;0.00;0.62;0.00;0.00;0.62;2.63;1.23;;;23.80;27.50;;;;;;2232126;62;20403;-65
2024/04/04 00:31:01;0.00;0.00;0.62;0.00;0.00;0.62;1.60;0.90;;;23.80;27.50;;;;;;2231700;62;20395;-66
2024/04/04 00:33:27;0.00;0.00;0.62;0.00;0.00;0.62;2.97;1.60;;;23.80;27.50;;;;;;2232364;62;20385;-66
2024/04/04 00:35:53;0.00;0.00;0.62;0.00;0.00;0.62;1.73;0.80;;;23.80;27.40;;;;;;2232337;62;20894;-66
2024/04/04 00:38:19;0.00;0.00;0.62;0.00;0.00;0.62;1.80;0.80;;;23.80;27.50;;;;;;2232025;62;20930;-66
2024/04/04 00:40:48;0.00;0.00;0.62;0.00;0.00;0.62;1.50;0.80;;;23.80;27.40;;;;;;2232093;62;20380;-66
2024/04/04 00:43:14;0.00;0.00;0.62;0.00;0.00;0.62;1.70;1.10;;;23.80;27.40;;;;;;2234962;62;20364;-66
2024/04/04 00:45:40;0.00;0.00;0.62;0.00;0.00;0.62;1.60;1.00;;;23.70;27.30;;;;;;2232195;62;20447;-65
2024/04/04 00:48:07;0.00;0.00;0.62;0.00;0.00;0.62;2.73;1.00;;;23.80;27.40;;;;;;2234818;62;20374;-64
2024/04/04 00:50:33;0.00;0.00;0.62;0.00;0.00;0.62;1.93;0.80;;;23.80;27.40;;;;;;2231654;62;20412;-66
2024/04/04 00:53:00;0.00;0.00;0.62;0.00;0.00;0.62;1.67;0.90;;;23.70;27.40;;;;;;2232035;62;20368;-66
2024/04/04 00:55:26;0.00;0.00;0.62;0.00;0.00;0.62;2.67;1.00;;;23.80;27.40;;;;;;2231914;62;20758;-67
2024/04/04 00:57:54;0.00;0.00;0.62;0.00;0.00;0.62;2.47;1.00;;;23.80;27.40;;;;;;2231836;62;20399;-67
2024/04/04 01:00:23;0.00;0.00;0.62;0.00;0.00;0.62;1.80;1.10;;;23.80;27.40;;;;;;2232162;62;20400;-66
2024/04/04 01:02:50;0.00;0.00;0.62;0.00;0.00;0.62;2.53;0.80;;;23.80;27.40;;;;;;2232019;62;20379;-66
2024/04/04 01:05:17;0.00;0.00;0.62;0.00;0.00;0.62;1.83;0.87;;;23.80;27.40;;;;;;2231727;62;20448;-65
2024/04/04 01:07:44;0.00;0.00;0.62;0.00;0.00;0.62;2.23;1.07;;;23.80;27.40;;;;;;2231926;62;20360;-65
2024/04/04 01:10:10;0.00;0.00;0.62;0.00;0.00;0.62;1.60;0.97;;;23.80;27.40;;;;;;2231783;62;20399;-66
2024/04/04 01:12:38;0.00;0.00;0.62;0.00;0.00;0.62;2.17;0.90;;;23.70;27.30;;;;;;2232132;62;20358;-66
2024/04/04 01:15:07;0.00;0.00;0.62;0.00;0.00;0.62;2.10;1.00;;;23.70;27.30;;;;;;2232137;62;20404;-67
2024/04/04 01:17:34;0.00;0.00;0.62;0.00;0.00;0.62;1.60;0.97;;;23.70;27.30;;;;;;2231834;62;20379;-66
2024/04/04 01:20:00;0.00;0.00;0.62;0.00;0.00;0.62;4.87;1.17;;;23.70;27.20;;;;;;2231813;62;20380;-66
2024/04/04 01:22:26;0.00;0.00;0.62;0.00;0.00;0.62;3.23;1.20;;;23.70;27.20;;;;;;2231199;62;20356;-66
2024/04/04 01:24:54;0.00;0.00;0.62;0.00;0.00;0.62;1.40;0.80;;;23.80;27.30;;;;;;2229696;62;20363;-66
2024/04/04 01:27:20;0.00;0.00;0.62;0.00;0.00;0.62;2.90;1.20;;;23.70;27.20;;;;;;2232233;62;20419;-66
2024/04/04 01:29:46;0.00;0.00;0.62;0.00;0.00;0.62;2.20;0.90;;;23.70;27.20;;;;;;2231458;62;20788;-66
2024/04/04 01:32:12;0.00;0.00;0.62;0.00;0.00;0.62;3.20;1.57;;;23.80;27.30;;;;;;2231394;62;20391;-65
2024/04/04 01:34:38;0.00;0.00;0.62;0.00;0.00;0.62;1.70;1.00;;;23.70;27.20;;;;;;2232178;62;20356;-65
2024/04/04 01:37:04;0.00;0.00;0.62;0.00;0.00;0.62;2.17;1.00;;;23.80;27.20;;;;;;2231767;62;20360;-65
2024/04/04 01:39:30;0.00;0.00;0.62;0.00;0.00;0.62;1.30;0.80;;;23.70;27.20;;;;;;2231612;62;20502;-66
2024/04/04 01:41:58;0.00;0.00;0.62;0.00;0.00;0.62;1.60;0.80;;;23.80;27.20;;;;;;2232152;62;20376;-66
2024/04/04 01:44:24;0.00;0.00;0.62;0.00;0.00;0.62;1.90;0.90;;;23.80;27.20;;;;;;2232071;62;20910;-67
2024/04/04 01:46:56;0.00;0.00;0.62;0.00;0.00;0.62;2.17;0.97;;;23.80;27.10;;;;;;2231671;62;20420;-71
2024/04/04 01:49:22;0.00;0.00;0.62;0.00;0.00;0.62;2.30;1.17;;;23.80;27.20;;;;;;2228239;62;20350;-67
2024/04/04 01:51:49;0.00;0.00;0.62;0.00;0.00;0.62;2.73;1.40;;;23.80;27.10;;;;;;2228122;62;20861;-66
2024/04/04 01:54:15;0.00;0.00;0.62;0.00;0.00;0.62;2.43;1.00;;;23.80;27.00;;;;;;2228132;62;20923;-65
2024/04/04 01:56:41;0.00;0.00;0.62;0.00;0.00;0.62;2.63;1.10;;;23.80;27.00;;;;;;2230372;62;20421;-65
2024/04/04 01:59:12;0.00;0.00;0.62;0.00;0.00;0.62;1.80;0.90;;;23.80;27.00;;;;;;2231885;62;20368;-65
2024/04/04 02:01:38;0.00;0.00;0.62;0.00;0.00;0.62;2.60;1.20;;;23.80;27.00;;;;;;2232079;62;20407;-65
2024/04/04 02:04:04;0.00;0.00;0.62;0.00;0.00;0.62;1.83;1.10;;;23.80;27.00;;;;;;2231655;62;20892;-65
2024/04/04 02:06:30;0.00;0.00;0.62;0.00;0.00;0.62;1.90;1.00;;;23.80;27.50;;;;;;2231348;62;20725;-66
2024/04/04 02:08:57;0.00;0.00;0.62;0.00;0.00;0.62;2.43;0.80;;;23.80;26.90;;;;;;2231876;62;20790;-66
2024/04/04 02:11:23;0.00;0.00;0.62;0.00;0.00;0.62;1.83;0.80;;;23.80;26.90;;;;;;2231063;62;20785;-66
2024/04/04 02:13:49;0.00;0.00;0.62;0.00;0.00;0.62;3.00;1.10;;;23.80;26.90;;;;;;2231866;62;20375;-65
2024/04/04 02:16:23;0.00;0.00;0.62;0.00;0.00;0.62;2.00;1.00;;;23.80;26.90;;;;;;2232004;62;20352;-65
2024/04/04 02:18:50;0.00;0.00;0.62;0.00;0.00;0.62;2.50;0.97;;;23.80;26.90;;;;;;2231016;62;20449;-66
2024/04/04 02:21:16;0.00;0.00;0.62;0.00;0.00;0.62;3.93;1.27;;;23.80;26.90;;;;;;2231797;62;20384;-65
2024/04/04 02:23:42;0.00;0.00;0.62;0.00;0.00;0.62;4.17;1.27;;;23.80;26.90;;;;;;2231874;62;20444;-66
2024/04/04 02:26:08;0.00;0.00;0.62;0.00;0.00;0.62;1.70;0.90;;;23.70;26.80;;;;;;2231500;62;20963;-66
2024/04/04 02:28:35;0.00;0.00;0.62;0.00;0.00;0.62;1.67;0.90;;;23.70;26.80;;;;;;2231430;62;20443;-65
2024/04/04 02:31:01;0.00;0.00;0.62;0.00;0.00;0.62;2.37;1.00;;;23.80;27.40;;;;;;2231573;62;20884;-67
2024/04/04 02:33:29;0.00;0.00;0.62;0.00;0.00;0.62;1.90;0.90;;;23.80;26.80;;;;;;2231436;62;20389;-65
2024/04/04 02:35:56;0.00;0.00;0.62;0.00;0.00;0.62;1.73;0.90;;;23.70;26.70;;;;;;2231822;62;20369;-65
2024/04/04 02:38:25;0.00;0.00;0.62;0.00;0.00;0.62;1.67;0.93;;;23.70;26.70;;;;;;2230947;62;20810;-67
2024/04/04 02:40:51;0.00;0.00;0.62;0.00;0.00;0.62;3.43;1.00;;;23.80;26.80;;;;;;2230147;62;20391;-65
2024/04/04 02:43:17;0.00;0.00;0.62;0.00;0.00;0.62;2.00;0.87;;;23.70;27.30;;;;;;2231626;62;20344;-65
2024/04/04 02:45:44;0.00;0.00;0.62;0.00;0.00;0.62;2.20;0.97;;;23.70;26.70;;;;;;2231350;62;20395;-65
2024/04/04 02:48:11;0.00;0.00;0.62;0.00;0.00;0.62;1.90;0.97;;;23.70;26.70;;;;;;2231122;62;20383;-65
2024/04/04 02:50:38;0.00;0.00;0.62;0.00;0.00;0.62;2.23;1.00;;;23.70;27.20;;;;;;2231813;62;20380;-65
2024/04/04 02:53:05;0.00;0.00;0.62;0.00;0.00;0.62;1.97;0.80;;;23.70;26.70;;;;;;2231677;62;20360;-65
2024/04/04 02:55:33;0.00;0.00;0.62;0.00;0.00;0.62;3.20;0.90;;;23.70;26.70;;;;;;2231266;62;20361;-65
2024/04/04 02:57:59;0.00;0.00;0.62;0.00;0.00;0.62;2.17;1.10;;;23.70;27.20;;;;;;2231222;62;20892;-66
2024/04/04 03:00:26;0.00;0.00;0.62;0.00;0.00;0.62;2.07;1.10;;;23.70;26.70;;;;;;2231721;62;20382;-65
2024/04/04 03:02:52;0.00;0.00;0.62;0.00;0.00;0.62;2.27;1.00;;;23.70;26.60;;;;;;2231605;62;20399;-65
2024/04/04 03:05:20;0.00;0.00;0.62;0.00;0.00;0.62;2.10;0.90;;;23.70;26.60;;;;;;2231725;62;20444;-65
2024/04/04 03:07:49;0.00;0.00;0.62;0.00;0.00;0.62;1.80;0.80;;;23.70;26.60;;;;;;2231434;62;20408;-65
2024/04/04 03:10:15;0.00;0.00;0.62;0.00;0.00;0.62;2.50;0.90;;;23.70;26.60;;;;;;2231252;62;20857;-65
2024/04/04 03:12:41;0.00;0.00;0.62;0.00;0.00;0.62;2.07;1.00;;;23.70;26.60;;;;;;2231662;62;20363;-65
2024/04/04 03:15:08;0.00;0.00;0.62;0.00;0.00;0.62;2.90;1.30;;;23.70;26.60;;;;;;2231703;62;20356;-65
2024/04/04 03:17:34;0.00;0.00;0.62;0.00;0.00;0.62;2.83;1.30;;;23.70;26.60;;;;;;2231286;62;20368;-65
2024/04/04 03:20:00;0.00;0.00;0.62;0.00;0.00;0.62;2.43;1.43;;;23.70;26.60;;;;;;2231544;62;20898;-66
2024/04/04 03:22:26;0.00;0.00;0.62;0.00;0.00;0.62;1.40;0.80;;;23.70;26.60;;;;;;2231791;62;20364;-65
2024/04/04 03:24:54;0.00;0.00;0.62;0.00;0.00;0.62;2.07;1.00;;;23.70;26.60;;;;;;2231269;62;20424;-66
2024/04/04 03:27:20;0.00;0.00;0.62;0.00;0.00;0.62;2.47;1.00;;;23.70;26.60;;;;;;2231363;62;20389;-65
2024/04/04 03:29:46;0.00;0.00;0.62;0.00;0.00;0.62;1.97;1.20;;;23.70;26.60;;;;;;2231586;62;20353;-66
2024/04/04 03:32:12;0.00;0.00;0.62;0.00;0.00;0.62;2.23;0.93;;;23.70;26.60;;;;;;2231359;62;20364;-68
2024/04/04 03:34:39;0.00;0.00;0.62;0.00;0.00;0.62;2.47;1.10;;;23.60;26.60;;;;;;2231810;62;20356;-65
2024/04/04 03:37:05;0.00;0.00;0.62;0.00;0.00;0.62;1.63;0.80;;;23.60;26.60;;;;;;2234241;62;20368;-67
2024/04/04 03:39:31;0.00;0.00;0.62;0.00;0.00;0.62;1.70;0.90;;;23.60;26.60;;;;;;2231128;62;20380;-66
2024/04/04 03:41:58;0.00;0.00;0.62;0.00;0.00;0.62;2.53;1.27;;;23.60;26.60;;;;;;2231465;62;20955;-68
2024/04/04 03:44:25;0.00;0.00;0.62;0.00;0.00;0.62;1.40;0.70;;;23.60;26.60;;;;;;2231911;62;20899;-66
2024/04/04 03:46:51;0.00;0.00;0.62;0.00;0.00;0.62;4.40;1.10;;;23.60;26.60;;;;;;2231586;62;20941;-66
2024/04/04 03:49:17;0.00;0.00;0.62;0.00;0.00;0.62;1.80;1.00;;;23.60;26.60;;;;;;2231980;62;20781;-66
2024/04/04 03:51:43;0.00;0.00;0.62;0.00;0.00;0.62;2.67;1.10;;;23.60;26.60;;;;;;2231949;62;20976;-67
2024/04/04 03:54:09;0.00;0.00;0.62;0.00;0.00;0.62;2.37;0.97;;;23.60;26.60;;;;;;2231804;62;20364;-65
2024/04/04 03:56:36;0.00;0.00;0.62;0.00;0.00;0.62;2.13;0.83;;;23.60;26.60;;;;;;2231901;62;20360;-66
2024/04/04 03:59:04;0.00;0.00;0.62;0.00;0.00;0.62;2.27;1.03;;;23.60;26.60;;;;;;2232116;62;20360;-65
2024/04/04 04:01:30;0.00;0.00;0.62;0.00;0.00;0.62;2.03;1.07;;;23.60;26.60;;;;;;2231950;62;20384;-66
2024/04/04 04:03:56;0.00;0.00;0.62;0.00;0.00;0.62;2.83;0.73;;;23.60;26.60;;;;;;2231778;62;20917;-65
2024/04/04 04:06:24;0.00;0.00;0.62;0.00;0.00;0.62;2.10;0.90;;;23.60;26.60;;;;;;2232131;62;20391;-65
2024/04/04 04:08:50;0.00;0.00;0.62;0.00;0.00;0.62;1.97;0.90;;;23.60;26.60;;;;;;2231901;62;20889;-65
2024/04/04 04:11:16;0.00;0.00;0.62;0.00;0.00;0.62;1.87;1.07;;;23.60;26.60;;;;;;2232446;62;20389;-65
2024/04/04 04:13:46;0.00;0.00;0.62;0.00;0.00;0.62;1.60;0.80;;;23.60;26.60;;;;;;2232049;62;20945;-66
2024/04/04 04:16:14;0.00;0.00;0.62;0.00;0.00;0.62;1.60;0.80;;;23.60;26.60;;;;;;2231822;62;20378;-65
2024/04/04 04:18:40;0.00;0.00;0.62;0.00;0.00;0.62;2.50;1.00;;;23.60;26.60;;;;;;2231375;62;20369;-65
2024/04/04 04:21:20;0.00;0.00;0.62;0.00;0.00;0.62;2.50;0.80;;;23.60;26.60;;;;;;2232078;62;20403;-65
2024/04/04 04:23:48;0.00;0.00;0.62;0.00;0.00;0.62;1.50;0.70;;;23.60;26.60;;;;;;2231801;62;20969;-65
2024/04/04 04:26:15;0.00;0.00;0.62;0.00;0.00;0.62;1.87;0.80;;;23.60;26.50;;;;;;2232129;62;20388;-65
2024/04/04 04:28:41;0.00;0.00;0.62;0.00;0.00;0.62;1.83;1.03;;;23.60;26.50;;;;;;2228550;62;20368;-65
2024/04/04 04:31:27;0.00;0.00;0.62;0.00;0.00;0.62;2.70;1.00;;;23.60;26.60;;;;;;2228780;62;20500;-65
2024/04/04 04:33:55;0.00;0.00;0.62;0.00;0.00;0.62;1.70;0.90;;;23.50;26.50;;;;;;2231346;62;20360;-65
2024/04/04 04:36:27;0.00;0.00;0.62;0.00;0.00;0.62;1.80;0.90;;;23.50;26.50;;;;;;2231970;62;20367;-65
2024/04/04 04:38:53;0.00;0.00;0.62;0.00;0.00;0.62;2.47;0.90;;;23.50;26.50;;;;;;2231899;62;20371;-65
2024/04/04 04:41:21;0.00;0.00;0.62;0.00;0.00;0.62;2.17;0.90;;;23.50;26.50;;;;;;2232099;62;20395;-65
2024/04/04 04:43:48;0.00;0.00;0.62;0.00;0.00;0.62;2.93;1.10;;;23.50;26.50;;;;;;2232121;62;20373;-66
2024/04/04 04:46:14;0.00;0.00;0.62;0.00;0.00;0.62;3.50;1.47;;;23.50;26.40;;;;;;2231656;62;20872;-66
2024/04/04 04:48:42;0.00;0.00;0.62;0.00;0.00;0.62;2.90;1.03;;;23.50;26.50;;;;;;2231963;62;20400;-66
2024/04/04 04:51:09;0.00;0.00;0.62;0.00;0.00;0.62;3.07;1.20;;;23.50;26.40;;;;;;2232286;62;20388;-66
2024/04/04 04:53:36;0.00;0.00;0.62;0.00;0.00;0.62;2.30;1.47;;;23.50;26.50;;;;;;2231899;62;20364;-65
2024/04/04 04:56:03;0.00;0.00;0.62;0.00;0.00;0.62;2.40;1.17;;;23.50;26.40;;;;;;2231938;62;20431;-66
2024/04/04 04:58:30;0.00;0.00;0.62;0.00;0.00;0.62;4.50;1.90;;;23.50;26.40;;;;;;2231890;62;20360;-66
2024/04/04 05:00:57;0.00;0.00;0.62;0.00;0.00;0.62;3.83;2.10;;;23.50;26.40;;;;;;2231764;62;20387;-65
2024/04/04 05:03:24;0.00;0.00;0.62;0.00;0.00;0.62;3.40;2.10;;;23.50;26.40;;;;;;2232038;62;20360;-65
2024/04/04 05:05:52;0.00;0.00;0.62;0.00;0.00;0.62;4.03;2.40;;;23.50;26.40;;;;;;2232006;62;20381;-66
2024/04/04 05:08:18;0.00;0.00;0.62;0.00;0.00;0.62;6.43;3.00;;;23.50;26.40;;;;;;2231621;62;20368;-65
2024/04/04 05:10:45;0.00;0.00;0.62;0.00;0.00;0.62;4.17;2.73;;;23.50;26.40;;;;;;2232053;62;20380;-65
2024/04/04 05:13:11;0.00;0.00;0.62;0.00;0.00;0.62;6.20;3.10;;;23.50;26.50;;;;;;2232014;62;20825;-66
2024/04/04 05:15:46;0.00;0.00;0.62;0.00;0.00;0.62;7.10;3.37;;;23.50;26.40;;;;;;2231750;62;20408;-65
2024/04/04 05:18:12;0.00;0.00;0.62;0.00;0.00;0.62;5.20;2.60;;;23.50;26.40;;;;;;2231776;62;20883;-65
2024/04/04 05:20:41;0.00;0.00;0.62;0.00;0.00;0.62;4.77;3.30;;;23.50;26.40;;;;;;2231985;62;20381;-66
2024/04/04 05:23:08;0.00;0.00;0.62;0.00;0.00;0.62;4.73;2.97;;;23.50;26.50;;;;;;2232884;62;20766;-66
2024/04/04 05:25:34;0.00;0.00;0.62;0.00;0.00;0.62;5.50;2.80;;;23.50;26.40;;;;;;2232292;62;20372;-65
2024/04/04 05:28:01;0.00;0.00;0.62;0.00;0.00;0.62;4.70;2.97;;;23.50;26.40;;;;;;2232351;62;20930;-65
2024/04/04 05:30:28;0.00;0.00;0.62;0.00;0.00;0.62;4.07;2.60;;;23.50;26.40;;;;;;2231702;62;21009;-65
2024/04/04 05:32:55;0.00;0.00;0.62;0.00;0.00;0.62;6.70;2.93;;;23.50;26.40;;;;;;2232571;62;20403;-65
2024/04/04 05:35:21;0.00;0.00;0.62;0.00;0.00;0.62;4.00;2.87;;;23.50;26.40;;;;;;2232191;62;20400;-65
2024/04/04 05:37:47;0.00;0.00;0.62;0.00;0.00;0.62;4.13;2.80;;;23.50;26.40;;;;;;2231849;62;20360;-66
2024/04/04 05:40:15;0.00;0.00;0.62;0.00;0.00;0.62;4.37;3.03;;;23.50;26.40;;;;;;2231797;62;20377;-65
2024/04/04 05:42:41;0.00;0.00;0.62;0.00;0.00;0.62;3.90;2.77;;;23.50;26.40;;;;;;2232171;62;20781;-68
2024/04/04 05:45:07;0.00;0.00;0.62;0.00;0.00;0.62;4.60;2.97;;;23.50;26.40;;;;;;2231758;62;20422;-65
2024/04/04 05:47:34;0.00;0.00;0.62;0.00;0.00;0.62;4.13;3.20;;;23.50;26.40;;;;;;2231951;62;20415;-66
2024/04/04 05:50:00;0.00;0.00;0.62;0.00;0.00;0.62;4.00;2.17;;;23.40;26.30;;;;;;2231942;62;20470;-67
2024/04/04 05:52:26;0.00;0.00;0.62;0.00;0.00;0.62;5.23;2.87;;;23.40;26.30;;;;;;2231901;62;20366;-65
2024/04/04 05:54:53;0.00;0.00;0.62;0.00;0.00;0.62;4.03;2.40;;;23.40;26.30;;;;;;2232092;62;20352;-65
2024/04/04 05:57:21;0.00;0.00;0.62;0.00;0.00;0.62;4.27;2.40;;;23.40;26.30;;;;;;2231751;62;20392;-66
2024/04/04 05:59:47;0.00;0.00;0.62;0.00;0.00;0.62;5.53;3.23;;;23.40;26.30;;;;;;2231725;62;20371;-67
2024/04/04 06:02:13;0.00;0.00;0.62;0.00;0.00;0.62;4.30;3.10;;;23.40;26.30;;;;;;2232085;62;20364;-67
2024/04/04 06:04:39;0.00;0.00;0.62;0.00;0.00;0.62;4.83;2.90;;;23.40;26.30;;;;;;2232050;62;20837;-65
2024/04/04 06:07:08;0.00;0.00;0.62;0.00;0.00;0.62;5.03;2.80;;;23.40;26.30;;;;;;2231394;62;20416;-65
2024/04/04 06:09:34;0.00;0.00;0.62;0.00;0.00;0.62;4.83;2.53;;;23.40;26.30;;;;;;2232001;62;20367;-66
2024/04/04 06:12:00;0.00;0.00;0.62;0.00;0.00;0.62;6.10;3.13;;;23.40;26.30;;;;;;2232156;62;20376;-65
2024/04/04 06:14:28;0.00;0.00;0.62;0.00;0.00;0.62;5.30;3.37;;;23.40;26.30;;;;;;2231911;62;20404;-65
2024/04/04 06:16:54;0.00;0.00;0.62;0.00;0.00;0.62;4.80;3.20;;;23.40;26.30;;;;;;2231508;62;20907;-65
2024/04/04 06:19:20;0.00;0.00;0.62;0.00;0.00;0.62;4.00;3.17;;;23.40;26.30;;;;;;2232256;62;20403;-66
2024/04/04 06:21:47;0.00;0.00;0.62;0.00;0.00;0.62;5.40;3.60;;;23.40;26.30;;;;;;2231892;62;20584;-66
2024/04/04 06:24:13;0.00;0.00;0.62;0.00;0.00;0.62;5.40;3.30;;;23.40;26.30;;;;;;2231994;62;20353;-65
2024/04/04 06:26:40;0.00;0.00;0.62;0.00;0.00;0.62;6.40;3.30;;;23.40;26.30;;;;;;2232068;62;20388;-66
2024/04/04 06:29:08;0.00;0.00;0.62;0.00;0.00;0.62;4.93;3.03;;;23.40;26.30;;;;;;2231733;62;20360;-66
2024/04/04 06:31:35;0.00;0.00;0.62;0.00;0.00;0.62;4.50;3.40;;;23.40;26.30;;;;;;2231991;62;20400;-65
2024/04/04 06:34:01;0.00;0.00;0.62;0.00;0.00;0.62;4.20;2.93;;;23.40;26.30;;;;;;2232044;62;20479;-63
2024/04/04 06:36:28;0.00;0.00;0.62;0.00;0.00;0.62;5.13;3.40;;;23.40;26.30;;;;;;2231601;62;20407;-65
2024/04/04 06:38:56;0.00;0.00;0.62;0.00;0.00;0.62;4.30;3.57;;;23.40;26.30;;;;;;2231926;62;20360;-67
2024/04/04 06:41:22;0.00;0.00;0.62;0.00;0.00;0.62;4.57;3.27;;;23.40;26.30;;;;;;2232045;62;20416;-65
2024/04/04 06:43:50;0.00;0.00;0.62;0.00;0.00;0.62;3.73;2.80;;;23.40;26.30;;;;;;2231796;62;20387;-65
2024/04/04 06:46:16;0.00;0.00;0.62;0.00;0.00;0.62;4.93;3.57;;;23.40;26.30;;;;;;2231844;62;20875;-64
2024/04/04 06:48:44;0.00;0.00;0.62;0.00;0.00;0.62;5.70;3.00;;;23.40;26.30;;;;;;2231987;62;20367;-65
2024/04/04 06:51:11;0.00;0.00;0.62;0.00;0.00;0.62;4.10;2.50;;;23.40;26.30;;;;;;2231062;62;20926;-65
2024/04/04 06:53:39;0.00;0.00;0.62;0.00;0.00;0.62;4.87;3.20;;;23.40;26.30;;;;;;2231289;62;20356;-65
2024/04/04 06:56:05;0.00;0.00;0.62;0.00;0.00;0.62;5.47;3.37;;;23.40;26.30;;;;;;2231876;62;20361;-65
2024/04/04 06:58:32;0.00;0.00;0.62;0.00;0.00;0.62;4.37;2.87;;;23.40;26.30;;;;;;2230972;62;20776;-67
2024/04/04 07:00:59;0.00;0.00;0.62;0.00;0.00;0.62;3.70;2.70;;;23.40;26.30;;;;;;2231377;62;20388;-67
2024/04/04 07:03:25;0.00;0.00;0.62;0.00;0.00;0.62;3.60;3.00;;;23.40;26.40;;;;;;2232265;62;20399;-67
2024/04/04 07:05:53;0.00;0.00;0.62;0.00;0.00;0.62;4.40;2.73;;;23.40;26.30;;;;;;2231569;62;20368;-65
2024/04/04 07:08:20;0.00;0.00;0.62;0.00;0.00;0.62;3.90;2.33;;;23.40;26.30;;;;;;2231534;62;20753;-65
2024/04/04 07:10:46;0.00;0.00;0.62;0.00;0.00;0.62;4.17;2.80;;;23.40;26.30;;;;;;2231788;62;20926;-65
2024/04/04 07:13:14;0.00;0.00;0.62;0.00;0.00;0.62;4.70;2.63;;;23.40;26.30;;;;;;2231704;62;20395;-65
2024/04/04 07:15:40;0.00;0.00;0.62;0.00;0.00;0.62;4.20;2.80;;;23.40;26.40;;;;;;2231560;62;20368;-65
2024/04/04 07:18:12;0.00;0.00;0.62;0.00;0.00;0.62;3.43;2.50;;;23.40;26.40;;;;;;2231830;62;20348;-65
2024/04/04 07:20:39;0.00;0.00;0.62;0.00;0.00;0.62;4.87;3.03;;;23.40;26.30;;;;;;2232431;62;20375;-65
2024/04/04 07:23:07;0.00;0.00;0.62;0.00;0.00;0.62;3.30;2.47;;;23.40;26.40;;;;;;2462705;54;20391;-65
2024/04/04 07:25:33;0.00;0.00;0.62;0.00;0.00;0.62;3.57;2.80;;;23.40;26.40;;;;;;2232513;62;20360;-65
2024/04/04 07:28:01;0.00;0.00;0.62;0.00;0.00;0.62;5.30;2.60;;;23.40;26.40;;;;;;2232326;62;20391;-65
2024/04/04 07:30:29;0.00;0.00;0.62;0.00;0.00;0.62;3.80;2.90;;;23.40;26.40;;;;;;2232184;62;20396;-65
2024/04/04 07:32:55;0.00;0.00;0.62;0.00;0.00;0.62;3.73;2.60;;;23.40;26.40;;;;;;2232443;62;20391;-65
2024/04/04 07:35:21;0.00;0.00;0.62;0.00;0.00;0.62;4.60;2.63;;;23.40;26.40;;;;;;2232535;62;20364;-65
2024/04/04 07:37:47;0.00;0.00;0.62;0.00;0.00;0.62;4.27;2.57;;;23.40;26.40;;;;;;2232023;62;20375;-65
2024/04/04 07:40:16;0.00;0.00;0.62;0.00;0.00;0.62;3.93;2.53;;;23.30;26.30;;;;;;2232365;62;20428;-65
2024/04/04 07:42:46;0.00;0.00;0.62;0.00;0.00;0.62;3.73;2.97;;;23.30;26.30;;;;;;2232402;62;20394;-65
2024/04/04 07:45:12;0.00;0.00;0.62;0.00;0.00;0.62;4.03;2.40;;;23.40;26.40;;;;;;2232181;62;20378;-65
2024/04/04 07:47:38;0.00;0.00;0.62;0.00;0.00;0.62;4.23;2.77;;;23.40;26.40;;;;;;2231977;62;20388;-66
2024/04/04 07:50:07;0.00;0.00;0.62;0.00;0.00;0.62;4.40;2.83;;;23.40;26.40;;;;;;2232297;62;20379;-65
2024/04/04 07:52:34;0.00;0.00;0.62;0.00;0.00;0.62;4.10;2.60;;;23.40;26.40;;;;;;2232146;62;20416;-65
2024/04/04 07:55:00;0.00;0.00;0.62;0.00;0.00;0.62;4.30;3.30;;;23.40;26.90;;;;;;2232267;62;20370;-65
2024/04/04 07:57:28;0.00;0.00;0.62;0.00;0.00;0.62;4.77;2.80;;;23.30;26.40;;;;;;2232264;62;20353;-64
2024/04/04 07:59:54;0.00;0.00;0.62;0.00;0.00;0.62;5.33;3.33;;;23.40;26.50;;;;;;2232083;62;20386;-65
2024/04/04 08:02:20;0.00;0.00;0.62;0.00;0.00;0.62;4.90;2.73;;;23.40;26.40;;;;;;2232438;62;20416;-65
2024/04/04 08:04:47;0.00;0.00;0.62;0.00;0.00;0.62;5.23;3.40;;;23.40;26.40;;;;;;2232362;62;20761;-65
2024/04/04 08:07:13;0.00;0.00;0.62;0.00;0.00;0.62;4.43;2.87;;;23.30;26.40;;;;;;2231823;62;20439;-65
2024/04/04 08:09:39;0.00;0.00;0.62;0.00;0.00;0.62;5.53;3.83;;;23.40;26.50;;;;;;2232289;62;20447;-65
2024/04/04 08:12:07;0.00;0.00;0.62;0.00;0.00;0.62;4.37;3.40;;;23.30;26.40;;;;;;2232265;62;20357;-66
2024/04/04 08:14:36;0.00;0.00;0.62;0.00;0.00;0.62;5.80;3.70;;;23.40;26.50;;;;;;2231925;62;20371;-65
2024/04/04 08:17:02;0.00;0.00;0.62;0.00;0.00;0.62;5.00;3.40;;;23.30;26.40;;;;;;2232117;62;20360;-65
2024/04/04 08:19:28;0.00;0.00;0.62;0.00;0.00;0.62;5.63;4.00;;;23.40;26.50;;;;;;2232153;62;20403;-65
2024/04/04 08:21:54;0.00;0.00;0.62;0.00;0.00;0.62;4.43;4.03;;;23.40;26.50;;;;;;2232050;62;20475;-65
2024/04/04 08:24:21;0.00;0.00;0.62;0.00;0.00;0.62;3.90;3.50;;;23.30;26.50;;;;;;2232273;62;20771;-65
2024/04/04 08:26:47;0.00;0.00;0.62;0.00;0.00;0.62;4.70;3.17;;;23.40;26.50;;;;;;2232009;62;20439;-65
2024/04/04 08:29:14;0.00;0.00;0.62;0.00;0.00;0.62;7.00;4.13;;;23.30;27.00;;;;;;2231732;62;20368;-65
2024/04/04 08:31:42;0.00;0.00;0.62;0.00;0.00;0.62;4.53;3.27;;;23.30;26.50;;;;;;2232176;62;20529;-65
2024/04/04 08:34:09;0.00;0.00;0.62;0.00;0.00;0.62;6.17;3.87;;;23.30;26.50;;;;;;2232227;62;20364;-65
2024/04/04 08:36:35;0.00;0.00;0.62;0.00;0.00;0.62;3.43;2.80;;;23.30;26.50;;;;;;2232055;62;20361;-66
2024/04/04 08:39:02;0.00;0.00;0.62;0.00;0.00;0.62;5.10;3.87;;;23.40;26.60;;;;;;2232449;62;20348;-65
2024/04/04 08:41:29;0.00;0.00;0.62;0.00;0.00;0.62;4.83;3.63;;;23.30;26.50;;;;;;2232421;62;20396;-65
2024/04/04 08:43:56;0.00;0.00;0.62;0.00;0.00;0.62;6.50;3.57;;;23.40;26.60;;;;;;2231435;62;20853;-65
2024/04/04 08:46:22;0.00;0.00;0.62;0.00;0.00;0.62;4.17;3.40;;;23.30;26.50;;;;;;2232006;62;20380;-66
2024/04/04 08:48:54;0.00;0.00;0.62;0.00;0.00;0.62;5.13;3.17;;;23.30;26.50;;;;;;2230392;62;20361;-65
2024/04/04 08:51:21;0.00;0.00;0.62;0.00;0.00;0.62;3.47;2.83;;;23.30;26.60;;;;;;2231342;62;20407;-66
2024/04/04 08:53:47;0.00;0.00;0.62;0.00;0.00;0.62;4.30;3.37;;;23.40;26.60;;;;;;2232392;62;20352;-66
2024/04/04 08:56:13;0.00;0.00;0.62;0.00;0.00;0.62;4.33;3.47;;;23.30;26.60;;;;;;2231924;62;20384;-66
2024/04/04 08:58:40;0.00;0.00;0.62;0.00;0.00;0.62;4.37;3.30;;;23.30;26.60;;;;;;2231814;62;20451;-66
2024/04/04 09:01:06;0.00;0.00;0.62;0.00;0.00;0.62;4.80;3.30;;;23.40;26.60;;;;;;2232082;62;20376;-66
2024/04/04 09:03:32;0.00;0.00;0.62;0.00;0.00;0.62;4.20;3.13;;;23.30;26.60;;;;;;2232186;62;20882;-66
2024/04/04 09:06:01;0.00;0.00;0.62;0.00;0.00;0.62;7.60;3.57;;;23.30;27.20;;;;;;2231658;62;20812;-63
2024/04/04 09:08:29;0.00;0.00;0.62;0.00;0.00;0.62;6.57;3.63;;;23.40;26.70;;;;;;2232091;62;20496;-67
2024/04/04 09:10:59;0.00;0.00;0.62;0.00;0.00;0.62;4.03;3.10;;;23.40;26.70;;;;;;2232069;62;20479;-64
2024/04/04 09:13:26;0.00;0.00;0.62;0.00;0.00;0.62;4.40;3.30;;;23.40;26.70;;;;;;2231967;62;20885;-65
2024/04/04 09:16:00;0.00;0.00;0.62;0.00;0.00;0.62;4.53;3.30;;;23.40;26.70;;;;;;2232294;62;20356;-65
2024/04/04 09:18:26;0.00;0.00;0.62;0.00;0.00;0.62;3.33;2.50;;;23.40;26.70;;;;;;2232068;62;20870;-65
2024/04/04 09:20:53;0.00;0.00;0.62;0.00;0.00;0.62;4.53;3.40;;;23.40;26.80;;;;;;2231930;62;20402;-65
2024/04/04 09:23:22;0.00;0.00;0.62;0.00;0.00;0.62;5.27;3.20;;;23.40;26.80;;;;;;2232099;62;20352;-67
2024/04/04 09:25:48;0.00;0.00;0.62;0.00;0.00;0.62;4.27;3.10;;;23.40;26.80;;;;;;2232255;62;20365;-66
2024/04/04 09:28:19;0.00;0.00;0.62;0.00;0.00;0.62;3.97;2.70;;;23.40;26.80;;;;;;2232129;62;20364;-66
2024/04/04 09:30:50;0.00;0.00;0.62;0.00;0.00;0.62;6.33;3.67;;;23.40;26.80;;;;;;2232002;62;20491;-66
2024/04/04 09:33:18;0.00;0.00;0.62;0.00;0.00;0.62;4.67;3.37;;;23.30;26.80;;;;;;2232250;62;20447;-65
2024/04/04 09:35:47;0.00;0.00;0.62;0.00;0.00;0.62;4.43;3.57;;;23.40;26.80;;;;;;2232019;62;20423;-65
2024/04/04 09:38:13;0.00;0.00;0.62;0.00;0.00;0.62;3.93;3.07;;;23.40;26.90;;;;;;2232131;62;20356;-64
2024/04/04 09:40:44;0.00;0.00;0.62;0.00;0.00;0.62;6.60;3.47;;;23.30;26.80;;;;;;2231951;62;20380;-65